Time;durP1;ratioP1;P1;durP2;ratioP2;P2;SDS_P1;SDS_P2;PMS_P1;PMS_P2;Temp;Humidity;BMP_temperature;BMP_pressure;BME280_temperature;BME280_humidity;BME280_pressure;Samples;Min_cycle;Max_cycle;Signal;HPM_P1;HPM_P2
2021/04/19 00:01:23;;;;;;;19.00;8.82;;;9.10;99.90;;;;;;4993716;28;20037;-83
2021/04/19 00:03:49;;;;;;;18.13;7.15;;;9.10;99.90;;;;;;4992259;28;20475;-84
2021/04/19 00:06:14;;;;;;;13.93;8.45;;;9.20;99.90;;;;;;4993781;28;20026;-84
2021/04/19 00:08:40;;;;;;;23.27;9.10;;;9.20;99.90;;;;;;4993639;28;20026;-84
2021/04/19 00:11:05;;;;;;;17.65;7.82;;;9.10;99.90;;;;;;4992817;28;20033;-84
2021/04/19 00:13:31;;;;;;;18.55;8.25;;;9.10;99.90;;;;;;4992129;28;20372;-84
2021/04/19 00:15:56;;;;;;;19.38;7.97;;;9.10;99.90;;;;;;5007583;28;20038;-84
2021/04/19 00:18:22;;;;;;;13.48;7.30;;;9.10;99.90;;;;;;4993356;28;20030;-84
2021/04/19 00:20:47;;;;;;;13.45;7.40;;;9.20;99.90;;;;;;4993366;28;20034;-83
2021/04/19 00:23:13;;;;;;;20.45;8.73;;;9.20;99.90;;;;;;4993156;28;20037;-84
2021/04/19 00:25:39;;;;;;;18.63;8.18;;;9.10;99.90;;;;;;4981603;28;20582;-84
2021/04/19 00:28:04;;;;;;;21.00;8.43;;;9.10;99.90;;;;;;4973835;28;20026;-84
2021/04/19 00:30:30;;;;;;;22.73;7.68;;;9.10;99.90;;;;;;4973828;28;20054;-84
2021/04/19 00:32:56;;;;;;;19.95;7.78;;;9.00;99.90;;;;;;4973560;28;20031;-84
2021/04/19 00:35:21;;;;;;;17.15;7.70;;;8.90;99.90;;;;;;4974320;28;20644;-84
2021/04/19 00:37:47;;;;;;;19.83;8.40;;;8.80;99.90;;;;;;4972121;28;20040;-84
2021/04/19 00:40:16;;;;;;;20.80;8.45;;;8.70;99.90;;;;;;4973914;28;20030;-84
2021/04/19 00:42:43;;;;;;;20.52;8.75;;;8.50;99.90;;;;;;4973400;28;20396;-84
2021/04/19 00:45:10;;;;;;;20.10;9.05;;;8.20;99.90;;;;;;4972154;28;20400;-84
2021/04/19 00:47:37;;;;;;;15.18;9.18;;;8.10;99.90;;;;;;4992854;28;20026;-84
2021/04/19 00:50:08;;;;;;;18.42;9.57;;;7.90;99.90;;;;;;4992841;28;20080;-84
2021/04/19 00:52:34;;;;;;;22.27;9.27;;;7.70;99.90;;;;;;4991866;28;20026;-84
2021/04/19 00:55:00;;;;;;;16.02;9.25;;;7.60;99.90;;;;;;4992046;28;20034;-84
2021/04/19 00:57:28;;;;;;;17.25;8.77;;;7.50;99.90;;;;;;4991369;28;20539;-83
2021/04/19 00:59:53;;;;;;;30.02;11.32;;;7.40;99.90;;;;;;4991962;28;20023;-83
2021/04/19 01:02:19;;;;;;;18.63;8.85;;;7.30;99.90;;;;;;4992661;28;20037;-84
2021/04/19 01:04:45;;;;;;;20.95;9.13;;;7.20;99.90;;;;;;4991203;28;20035;-84
2021/04/19 01:07:10;;;;;;;18.83;8.77;;;7.20;99.90;;;;;;4991118;28;20033;-84
2021/04/19 01:09:36;;;;;;;18.40;9.35;;;7.10;99.90;;;;;;4991101;28;20041;-83
2021/04/19 01:12:01;;;;;;;28.20;9.18;;;7.00;99.90;;;;;;4990635;28;20034;-84
2021/04/19 01:14:27;;;;;;;24.38;8.95;;;6.90;99.90;;;;;;4990173;28;20026;-84
2021/04/19 01:16:53;;;;;;;23.88;10.52;;;6.80;99.90;;;;;;4992108;28;20113;-84
2021/04/19 01:19:18;;;;;;;22.65;9.95;;;6.70;99.90;;;;;;4991178;28;20121;-83
2021/04/19 01:21:44;;;;;;;26.30;9.32;;;6.60;99.90;;;;;;4990920;28;20458;-84
2021/04/19 01:24:10;;;;;;;19.08;9.60;;;6.50;99.90;;;;;;5006623;28;20066;-83
2021/04/19 01:26:35;;;;;;;20.52;11.50;;;6.40;99.90;;;;;;4973735;28;20030;-83
2021/04/19 01:29:01;;;;;;;22.73;10.25;;;6.40;99.90;;;;;;4972566;28;20034;-84
2021/04/19 01:31:26;;;;;;;22.15;10.13;;;6.30;99.90;;;;;;4971576;28;20033;-84
2021/04/19 01:33:52;;;;;;;22.20;10.13;;;6.30;99.90;;;;;;4970851;28;20027;-84
2021/04/19 01:36:18;;;;;;;25.65;11.13;;;6.30;99.90;;;;;;4984253;28;20039;-84
2021/04/19 01:38:43;;;;;;;20.52;11.25;;;6.20;99.90;;;;;;4990988;28;20113;-84
2021/04/19 01:41:09;;;;;;;24.65;10.95;;;6.20;99.90;;;;;;4976008;28;20538;-84
2021/04/19 01:43:35;;;;;;;22.02;10.85;;;6.10;99.90;;;;;;4970890;28;20035;-84
2021/04/19 01:46:01;;;;;;;27.13;10.18;;;6.00;99.90;;;;;;4980011;28;20054;-83
2021/04/19 01:48:26;;;;;;;28.73;11.48;;;6.00;99.90;;;;;;4990834;28;20019;-84
2021/04/19 01:50:54;;;;;;;29.50;10.93;;;5.90;99.90;;;;;;4991925;28;20022;-84
2021/04/19 01:53:19;;;;;;;24.02;10.40;;;5.90;99.90;;;;;;4991054;28;20034;-84
2021/04/19 01:55:45;;;;;;;32.13;11.82;;;5.90;99.90;;;;;;4989780;28;20045;-84
2021/04/19 01:58:18;;;;;;;41.08;12.20;;;5.90;99.90;;;;;;5006872;28;20530;-83
2021/04/19 02:00:48;;;;;;;36.63;12.75;;;5.80;99.90;;;;;;4990872;28;20037;-84
2021/04/19 02:03:24;;;;;;;38.42;12.43;;;5.80;99.90;;;;;;4990637;28;20545;-83
2021/04/19 02:05:57;;;;;;;28.23;12.02;;;5.80;99.90;;;;;;4981443;28;20026;-84
2021/04/19 02:08:51;;;;;;;26.35;12.60;;;5.80;99.90;;;;;;4972652;28;20143;-83
2021/04/19 02:11:29;;;;;;;24.97;12.20;;;5.80;99.90;;;;;;4987964;28;20034;-84
2021/04/19 02:14:08;;;;;;;26.75;12.40;;;5.70;99.90;;;;;;4991024;28;20034;-84
2021/04/19 02:17:11;;;;;;;32.10;12.88;;;5.70;99.90;;;;;;4991406;28;20180;-83
2021/04/19 02:19:47;;;;;;;27.00;12.15;;;5.60;99.90;;;;;;4991951;28;20038;-84
2021/04/19 02:22:24;;;;;;;28.05;12.85;;;5.60;99.90;;;;;;4993096;28;20038;-83
2021/04/19 02:24:52;;;;;;;33.92;12.02;;;5.50;99.90;;;;;;5009324;28;20430;-83
2021/04/19 02:27:28;;;;;;;22.42;12.23;;;5.40;99.90;;;;;;4994215;28;20022;-84
2021/04/19 02:29:56;;;;;;;36.08;14.10;;;5.40;99.90;;;;;;4993983;28;20062;-84
2021/04/19 02:32:26;;;;;;;23.38;12.00;;;5.40;99.90;;;;;;4994181;28;20495;-84
2021/04/19 02:34:55;;;;;;;31.77;14.73;;;5.30;99.90;;;;;;4994616;28;20022;-84
2021/04/19 02:37:22;;;;;;;23.85;12.93;;;5.20;99.90;;;;;;4995139;28;20031;-83
2021/04/19 02:39:50;;;;;;;29.08;14.45;;;5.20;99.90;;;;;;4991181;28;20038;-83
2021/04/19 02:42:18;;;;;;;31.25;12.98;;;5.10;99.90;;;;;;4975571;28;20027;-83
2021/04/19 02:44:51;;;;;;;28.65;13.45;;;5.10;99.90;;;;;;4973591;28;20038;-84
2021/04/19 02:47:19;;;;;;;33.78;13.27;;;5.10;99.90;;;;;;4992895;28;20034;-83
2021/04/19 02:49:45;;;;;;;38.85;15.90;;;5.10;99.90;;;;;;4992964;28;20487;-84
2021/04/19 02:52:11;;;;;;;41.05;15.25;;;5.10;99.90;;;;;;5009782;28;20213;-84
2021/04/19 02:54:40;;;;;;;32.28;14.85;;;5.10;99.90;;;;;;4993908;28;20034;-83
2021/04/19 02:57:25;;;;;;;40.90;16.23;;;5.20;99.90;;;;;;4995063;28;20022;-84
2021/04/19 02:59:52;;;;;;;42.40;16.20;;;5.10;99.90;;;;;;4993372;28;20030;-83
2021/04/19 03:02:23;;;;;;;30.23;14.30;;;5.10;99.90;;;;;;4993508;28;20487;-83
2021/04/19 03:04:49;;;;;;;44.35;15.45;;;5.10;99.90;;;;;;4992657;28;20474;-83
2021/04/19 03:07:17;;;;;;;29.95;15.63;;;5.10;99.90;;;;;;4975489;28;20050;-84
2021/04/19 03:09:52;;;;;;;33.45;15.07;;;5.00;99.90;;;;;;4976993;28;20478;-84
2021/04/19 03:12:21;;;;;;;32.35;14.57;;;5.00;99.90;;;;;;4994741;28;20034;-84
2021/04/19 03:14:58;;;;;;;37.22;15.43;;;5.00;99.90;;;;;;4994012;28;20037;-84
2021/04/19 03:17:26;;;;;;;37.80;15.68;;;4.90;99.90;;;;;;4994547;28;20506;-84
2021/04/19 03:20:14;;;;;;;41.63;15.82;;;4.90;99.90;;;;;;4994957;28;20039;-83
2021/04/19 03:22:43;;;;;;;40.28;17.20;;;4.80;99.90;;;;;;4994316;28;20069;-83
2021/04/19 03:25:11;;;;;;;32.92;15.88;;;4.80;99.90;;;;;;5002066;28;20034;-83
2021/04/19 03:27:39;;;;;;;39.17;15.65;;;4.80;99.90;;;;;;4977154;28;20034;-84
2021/04/19 03:30:06;;;;;;;33.53;14.90;;;4.80;99.90;;;;;;4992856;28;20478;-84
2021/04/19 03:32:37;;;;;;;47.08;16.15;;;4.80;99.90;;;;;;4994277;28;20069;-84
2021/04/19 03:35:07;;;;;;;48.45;17.33;;;4.80;99.90;;;;;;4992740;28;20031;-84
2021/04/19 03:37:35;;;;;;;44.35;18.08;;;4.80;99.90;;;;;;4992930;28;20030;-84
2021/04/19 03:40:09;;;;;;;49.63;19.15;;;4.90;99.90;;;;;;4988413;28;20033;-83
2021/04/19 03:42:36;;;;;;;45.97;17.33;;;4.90;99.90;;;;;;4974362;28;20035;-84
2021/04/19 03:45:06;;;;;;;43.53;17.90;;;4.90;99.90;;;;;;4974154;28;20022;-84
2021/04/19 03:47:34;;;;;;;52.28;19.20;;;4.90;99.90;;;;;;4994042;28;20044;-83
2021/04/19 03:50:01;;;;;;;38.15;17.60;;;4.90;99.90;;;;;;4993968;28;20487;-84
2021/04/19 03:52:31;;;;;;;33.58;16.50;;;5.00;99.90;;;;;;4994032;28;20553;-84
2021/04/19 03:54:58;;;;;;;51.47;17.83;;;5.00;99.90;;;;;;4992976;28;20038;-83
2021/04/19 03:57:25;;;;;;;46.55;18.77;;;5.00;99.90;;;;;;4993920;28;20165;-83
2021/04/19 03:59:54;;;;;;;46.25;18.27;;;5.00;99.90;;;;;;4993807;28;20399;-84
2021/04/19 04:02:22;;;;;;;39.40;17.98;;;4.90;99.90;;;;;;4993629;28;20561;-84
2021/04/19 04:04:49;;;;;;;50.25;20.08;;;5.00;99.90;;;;;;4990635;28;20027;-83
2021/04/19 04:07:16;;;;;;;42.00;19.98;;;5.00;99.90;;;;;;4974342;28;20030;-83
2021/04/19 04:09:42;;;;;;;44.45;20.08;;;5.00;99.90;;;;;;4976804;28;20056;-83
2021/04/19 04:12:09;;;;;;;44.35;20.67;;;5.00;99.90;;;;;;4993587;28;20553;-84
2021/04/19 04:14:36;;;;;;;39.53;18.05;;;4.80;99.90;;;;;;4993138;28;20041;-83
2021/04/19 04:17:02;;;;;;;57.20;18.92;;;4.80;99.90;;;;;;4993225;28;20040;-83
2021/04/19 04:19:28;;;;;;;39.03;18.35;;;4.80;99.90;;;;;;5008516;28;20048;-83
2021/04/19 04:21:55;;;;;;;37.78;17.75;;;4.70;99.90;;;;;;4993342;28;20534;-84
2021/04/19 04:24:20;;;;;;;42.35;17.05;;;4.60;99.90;;;;;;4992316;28;20089;-83
2021/04/19 04:26:46;;;;;;;39.90;17.02;;;4.50;99.90;;;;;;4993329;28;20467;-83
2021/04/19 04:29:12;;;;;;;32.55;16.52;;;4.50;99.90;;;;;;4993360;28;20085;-83
2021/04/19 04:31:37;;;;;;;35.85;15.13;;;4.40;99.90;;;;;;4992052;28;20518;-84
2021/04/19 04:34:03;;;;;;;31.83;16.23;;;4.40;99.90;;;;;;4992384;28;20053;-84
2021/04/19 04:36:28;;;;;;;30.60;15.80;;;4.30;99.90;;;;;;4992690;28;20069;-84
2021/04/19 04:38:54;;;;;;;38.35;16.50;;;4.20;99.90;;;;;;4993043;28;20030;-83
2021/04/19 04:41:19;;;;;;;31.88;16.50;;;4.20;99.90;;;;;;4975529;28;20041;-84
2021/04/19 04:43:47;;;;;;;36.80;17.25;;;4.20;99.90;;;;;;4972689;28;20495;-84
2021/04/19 04:46:35;;;;;;;46.47;17.67;;;4.20;99.90;;;;;;4981652;28;20033;-83
2021/04/19 04:49:14;;;;;;;48.03;17.00;;;4.20;99.90;;;;;;4992815;28;20030;-82
2021/04/19 04:51:42;;;;;;;28.85;16.35;;;4.20;99.90;;;;;;4992874;28;20073;-84
2021/04/19 04:54:12;;;;;;;32.63;17.30;;;4.20;99.90;;;;;;4992123;28;20026;-83
2021/04/19 04:56:43;;;;;;;43.30;17.27;;;4.30;99.90;;;;;;4992730;28;20491;-83
2021/04/19 04:59:11;;;;;;;44.78;18.15;;;4.40;99.90;;;;;;4991571;28;20510;-83
2021/04/19 05:01:38;;;;;;;38.63;18.63;;;4.40;99.90;;;;;;4991405;28;20471;-83
2021/04/19 05:04:05;;;;;;;39.15;19.63;;;4.50;99.90;;;;;;4991834;28;20483;-83
2021/04/19 05:06:31;;;;;;;40.83;18.02;;;4.70;99.90;;;;;;4977804;28;20031;-83
2021/04/19 05:08:58;;;;;;;54.60;21.23;;;4.70;99.90;;;;;;4971938;28;20027;-83
2021/04/19 05:11:23;;;;;;;45.80;21.02;;;4.80;99.90;;;;;;4989328;28;20026;-83
2021/04/19 05:13:49;;;;;;;43.60;19.38;;;4.90;99.90;;;;;;4991886;28;20023;-83
2021/04/19 05:16:25;;;;;;;51.33;20.55;;;5.00;99.90;;;;;;4992125;28;20045;-84
2021/04/19 05:18:51;;;;;;;49.50;20.30;;;5.10;99.90;;;;;;4991216;28;20085;-84
2021/04/19 05:21:17;;;;;;;50.28;20.48;;;5.20;99.90;;;;;;5005195;28;20442;-83
2021/04/19 05:23:42;;;;;;;37.50;19.60;;;5.30;99.90;;;;;;4991818;28;20058;-83
2021/04/19 05:26:08;;;;;;;47.28;21.15;;;5.40;99.90;;;;;;4991618;28;20030;-84
2021/04/19 05:28:34;;;;;;;43.75;20.42;;;5.50;99.90;;;;;;4991124;28;20022;-84
2021/04/19 05:30:59;;;;;;;34.58;18.35;;;5.60;99.90;;;;;;4990963;28;20031;-83
2021/04/19 05:33:25;;;;;;;40.20;18.83;;;5.70;99.90;;;;;;4992138;28;20037;-83
2021/04/19 05:35:51;;;;;;;48.55;19.70;;;5.80;99.90;;;;;;4991135;28;20066;-84
2021/04/19 05:38:17;;;;;;;45.88;20.13;;;5.90;99.90;;;;;;4992292;28;20027;-84
2021/04/19 05:40:45;;;;;;;45.38;18.80;;;6.10;99.90;;;;;;4980940;28;20034;-84
2021/04/19 05:43:10;;;;;;;43.92;19.10;;;6.20;99.90;;;;;;4972837;28;20396;-84
2021/04/19 05:45:37;;;;;;;44.85;19.60;;;6.30;99.90;;;;;;4975543;28;20065;-84
2021/04/19 05:48:04;;;;;;;32.70;17.85;;;6.40;99.90;;;;;;4992171;28;20398;-84
2021/04/19 05:50:29;;;;;;;49.42;19.25;;;6.50;99.90;;;;;;4990865;28;20380;-83
2021/04/19 05:52:57;;;;;;;37.38;16.67;;;6.60;99.90;;;;;;4992029;28;20169;-84
2021/04/19 05:55:28;;;;;;;43.83;19.08;;;6.70;99.90;;;;;;4991204;28;20100;-84
2021/04/19 05:58:21;;;;;;;45.88;17.85;;;6.70;99.90;;;;;;4994780;28;20057;-84
2021/04/19 06:00:52;;;;;;;32.13;16.33;;;6.90;99.90;;;;;;4995977;28;20037;-84
2021/04/19 06:03:53;;;;;;;31.00;15.75;;;7.00;99.90;;;;;;4987996;28;20030;-84
2021/04/19 06:06:36;;;;;;;34.75;15.98;;;7.20;99.90;;;;;;4987338;28;20051;-83
2021/04/19 06:09:23;;;;;;;39.63;15.57;;;7.30;99.90;;;;;;4990823;28;20030;-85
2021/04/19 06:11:54;;;;;;;40.95;15.27;;;7.50;99.90;;;;;;4976450;28;20042;-85
2021/04/19 06:14:25;;;;;;;33.97;13.88;;;7.70;99.90;;;;;;4975694;28;20097;-86
2021/04/19 06:16:53;;;;;;;39.60;13.63;;;7.90;99.90;;;;;;4990954;28;20097;-85
2021/04/19 06:19:20;;;;;;;37.25;14.43;;;8.00;99.90;;;;;;4995701;28;20029;-85
2021/04/19 06:21:46;;;;;;;26.20;13.32;;;8.20;99.90;;;;;;4995796;28;20022;-85
2021/04/19 06:24:12;;;;;;;32.67;12.82;;;8.50;99.90;;;;;;4995003;28;20077;-85
2021/04/19 06:26:38;;;;;;;25.92;12.77;;;8.60;99.90;;;;;;4975734;28;20027;-85
2021/04/19 06:29:04;;;;;;;34.75;13.48;;;8.80;99.90;;;;;;4974763;28;20033;-85
2021/04/19 06:31:31;;;;;;;26.65;11.98;;;9.10;99.90;;;;;;4986695;28;20058;-84
2021/04/19 06:34:09;;;;;;;27.50;11.77;;;9.20;99.90;;;;;;4987729;28;20096;-85
2021/04/19 06:36:37;;;;;;;29.00;12.48;;;9.40;99.90;;;;;;4989206;28;20121;-85
2021/04/19 06:39:05;;;;;;;20.42;10.45;;;9.60;99.90;;;;;;4988511;28;20034;-83
2021/04/19 06:41:31;;;;;;;19.77;10.27;;;9.80;99.90;;;;;;4989307;28;20445;-84
2021/04/19 06:43:58;;;;;;;20.05;10.55;;;9.90;99.90;;;;;;4989085;28;20042;-84
2021/04/19 06:46:30;;;;;;;23.95;10.52;;;10.00;99.90;;;;;;4989288;28;20058;-83
2021/04/19 06:48:57;;;;;;;30.48;12.13;;;10.10;99.90;;;;;;4989678;28;20125;-85
2021/04/19 06:51:22;;;;;;;28.00;10.23;;;10.20;99.90;;;;;;4992483;28;20138;-85
2021/04/19 06:53:55;;;;;;;24.75;10.55;;;10.40;99.90;;;;;;4994365;28;20515;-84
2021/04/19 06:56:26;;;;;;;27.50;10.43;;;10.60;99.90;;;;;;4990160;28;20100;-85
2021/04/19 06:58:53;;;;;;;21.20;9.73;;;10.90;99.90;;;;;;4974263;28;20026;-85
2021/04/19 07:01:20;;;;;;;30.67;10.50;;;11.00;99.90;;;;;;4975160;28;20386;-85
2021/04/19 07:03:51;;;;;;;20.15;8.75;;;11.20;99.90;;;;;;4973292;28;20454;-84
2021/04/19 07:06:17;;;;;;;25.33;9.65;;;11.30;99.90;;;;;;4975600;28;20037;-86
2021/04/19 07:08:50;;;;;;;22.17;8.73;;;11.30;99.90;;;;;;4974833;28;20118;-85
2021/04/19 07:11:21;;;;;;;17.52;8.80;;;11.50;99.90;;;;;;4998787;28;20031;-84
2021/04/19 07:13:47;;;;;;;29.25;9.25;;;11.70;99.90;;;;;;4994375;28;20717;-83
2021/04/19 07:16:13;;;;;;;18.73;8.50;;;11.70;99.90;;;;;;4989577;28;20034;-85
2021/04/19 07:18:39;;;;;;;17.95;9.15;;;11.80;99.90;;;;;;4990260;28;20026;-84
2021/04/19 07:21:06;;;;;;;20.35;8.38;;;12.00;99.90;;;;;;4991399;28;20042;-85
2021/04/19 07:23:36;;;;;;;16.58;8.48;;;12.10;99.90;;;;;;4990043;28;20114;-85
2021/04/19 07:26:06;;;;;;;15.73;8.52;;;12.30;99.90;;;;;;4982823;28;20105;-84
2021/04/19 07:28:36;;;;;;;14.15;7.88;;;12.40;99.90;;;;;;4991064;28;20391;-85
2021/04/19 07:31:04;;;;;;;17.35;8.35;;;12.60;99.90;;;;;;4989074;28;20486;-85
2021/04/19 07:33:35;;;;;;;20.60;8.68;;;12.80;99.90;;;;;;4994148;28;20050;-86
2021/04/19 07:36:28;;;;;;;20.52;7.78;;;12.90;99.90;;;;;;4993825;28;20034;-86
2021/04/19 07:38:56;;;;;;;19.98;9.60;;;13.00;99.90;;;;;;4994384;28;20026;-86
2021/04/19 07:41:42;;;;;;;16.10;8.60;;;13.00;99.90;;;;;;4976736;28;20177;-86
2021/04/19 07:44:08;;;;;;;17.90;8.00;;;13.00;99.90;;;;;;4972585;28;20034;-85
2021/04/19 07:46:33;;;;;;;19.70;8.00;;;13.30;99.90;;;;;;4984342;28;20029;-85
2021/04/19 07:48:59;;;;;;;18.58;8.48;;;13.50;99.90;;;;;;4992441;28;20030;-86
2021/04/19 07:51:28;;;;;;;20.92;8.20;;;13.70;99.90;;;;;;4989664;28;20054;-88
2021/04/19 07:54:18;;;;;;;17.73;7.97;;;13.90;99.90;;;;;;4992011;28;20026;-86
2021/04/19 07:57:05;;;;;;;23.77;8.88;;;14.10;99.90;;;;;;4984498;28;20161;-86
2021/04/19 07:59:33;;;;;;;16.38;7.88;;;14.30;99.90;;;;;;4993642;28;20023;-87
2021/04/19 08:02:01;;;;;;;12.77;7.45;;;14.20;99.90;;;;;;4991035;28;20034;-86
2021/04/19 08:04:28;;;;;;;15.88;7.32;;;14.30;99.90;;;;;;4993305;28;20015;-87
2021/04/19 08:06:53;;;;;;;15.50;7.72;;;14.50;99.90;;;;;;4993218;28;20053;-86
2021/04/19 08:09:24;;;;;;;17.05;7.70;;;14.60;99.90;;;;;;5008873;28;20054;-87
2021/04/19 08:11:56;;;;;;;14.85;7.70;;;14.70;99.90;;;;;;4991811;28;20029;-84
2021/04/19 08:14:22;;;;;;;15.48;7.63;;;14.70;99.90;;;;;;4992874;28;20030;-86
2021/04/19 08:17:06;;;;;;;19.70;7.25;;;14.90;99.90;;;;;;4989607;28;20019;-85
2021/04/19 08:19:33;;;;;;;13.55;6.85;;;15.10;99.90;;;;;;4989826;28;20517;-85
2021/04/19 08:22:15;;;;;;;15.63;7.53;;;15.20;99.90;;;;;;4988054;28;20501;-86
2021/04/19 08:24:41;;;;;;;18.38;8.57;;;15.40;99.90;;;;;;4988141;28;20064;-86
2021/04/19 08:27:07;;;;;;;17.63;7.07;;;15.40;99.90;;;;;;4988018;28;20101;-87
2021/04/19 08:29:40;;;;;;;25.17;7.85;;;15.50;99.90;;;;;;4988812;28;20053;-84
2021/04/19 08:32:07;;;;;;;15.27;7.55;;;15.60;99.90;;;;;;4989109;28;20069;-86
2021/04/19 08:34:35;;;;;;;21.73;8.00;;;15.60;99.90;;;;;;4978401;28;20495;-85
2021/04/19 08:37:02;;;;;;;24.02;7.53;;;15.70;99.90;;;;;;4990549;28;20026;-88
2021/04/19 08:39:28;;;;;;;18.55;7.88;;;15.70;99.90;;;;;;4993623;28;20062;-89
2021/04/19 08:41:54;;;;;;;20.85;7.55;;;15.70;99.90;;;;;;4995445;28;20018;-89
2021/04/19 08:44:20;;;;;;;22.42;7.35;;;15.50;99.90;;;;;;4992115;28;20108;-88
2021/04/19 08:46:46;;;;;;;13.02;7.53;;;15.80;99.90;;;;;;4991367;28;20066;-88
2021/04/19 08:49:12;;;;;;;17.83;8.10;;;16.10;99.90;;;;;;4990937;28;20100;-88
2021/04/19 08:51:39;;;;;;;17.35;7.45;;;16.40;99.90;;;;;;5006680;28;20032;-89
2021/04/19 08:54:05;;;;;;;17.33;7.60;;;16.30;99.90;;;;;;4988860;28;20037;-88
2021/04/19 08:56:31;;;;;;;18.02;8.18;;;16.50;99.90;;;;;;4983991;28;20031;-87
2021/04/19 08:58:59;;;;;;;20.45;8.07;;;16.70;99.90;;;;;;4989439;28;20029;-87
2021/04/19 09:01:30;;;;;;;13.27;7.13;;;16.80;99.90;;;;;;4987778;28;20095;-84
2021/04/19 09:04:06;;;;;;;16.00;7.40;;;17.10;99.90;;;;;;4986244;28;20057;-86
2021/04/19 09:06:44;;;;;;;21.65;7.85;;;17.40;99.90;;;;;;4987333;28;20394;-84
2021/04/19 09:09:15;;;;;;;13.93;6.95;;;17.50;99.90;;;;;;4988022;28;20026;-84
2021/04/19 09:11:41;;;;;;;14.50;7.15;;;17.60;99.90;;;;;;4988385;28;20022;-85
2021/04/19 09:14:15;;;;;;;13.52;6.60;;;17.80;99.90;;;;;;4987381;28;20026;-86
2021/04/19 09:16:42;;;;;;;20.08;6.57;;;17.60;99.90;;;;;;4987170;28;20048;-84
2021/04/19 09:19:15;;;;;;;11.32;6.28;;;17.60;99.90;;;;;;4988541;28;20080;-87
2021/04/19 09:21:42;;;;;;;17.02;7.03;;;17.80;99.90;;;;;;4989115;28;20042;-88
2021/04/19 09:24:14;;;;;;;24.10;7.82;;;17.90;99.90;;;;;;4986050;28;20042;-86
2021/04/19 09:26:54;;;;;;;16.45;7.60;;;18.10;99.90;;;;;;5003432;28;20534;-87
2021/04/19 09:29:26;;;;;;;18.45;7.15;;;18.00;99.90;;;;;;4987101;28;20025;-87
2021/04/19 09:31:59;;;;;;;16.27;6.13;;;18.30;99.90;;;;;;4987578;28;20023;-87
2021/04/19 09:34:41;;;;;;;19.43;6.77;;;18.30;99.90;;;;;;4986360;28;20022;-86
2021/04/19 09:37:08;;;;;;;18.65;6.68;;;18.10;99.90;;;;;;4988132;28;20026;-85
2021/04/19 09:39:52;;;;;;;38.88;7.20;;;18.30;99.90;;;;;;4985756;28;20100;-86
2021/04/19 09:42:38;;;;;;;;;;;18.30;99.90;;;;;;4987956;28;20034;-86
2021/04/19 09:45:04;;;;;;;13.27;6.47;;;18.50;99.90;;;;;;4987016;28;19933;-86
2021/04/19 09:47:51;;;;;;;21.05;6.70;;;18.60;99.90;;;;;;4987523;28;20160;-86
2021/04/19 09:50:22;;;;;;;14.77;6.70;;;18.60;99.90;;;;;;4987927;28;20026;-85
2021/04/19 09:52:50;;;;;;;15.93;6.43;;;18.80;99.90;;;;;;4987472;28;20043;-85
2021/04/19 09:55:17;;;;;;;27.70;7.03;;;18.90;99.90;;;;;;4986881;28;20026;-86
2021/04/19 09:57:43;;;;;;;15.23;6.53;;;18.90;99.90;;;;;;4982534;28;20026;-86
2021/04/19 10:00:09;;;;;;;13.13;6.07;;;19.10;99.90;;;;;;4988000;28;20034;-86
2021/04/19 10:02:36;;;;;;;15.95;6.75;;;19.20;99.90;;;;;;4988263;28;20034;-87
2021/04/19 10:05:05;;;;;;;15.07;6.10;;;19.30;99.90;;;;;;4988111;28;20019;-86
2021/04/19 10:07:32;;;;;;;17.08;5.93;;;19.50;99.90;;;;;;4988474;28;20041;-86
2021/04/19 10:10:01;;;;;;;14.77;6.18;;;19.50;99.90;;;;;;4987898;28;20033;-86
2021/04/19 10:12:29;;;;;;;20.00;5.38;;;19.50;99.90;;;;;;4989766;28;20026;-86
2021/04/19 10:14:57;;;;;;;19.02;6.25;;;19.50;99.90;;;;;;5005000;28;20058;-87
2021/04/19 10:17:26;;;;;;;14.32;5.88;;;19.60;99.90;;;;;;5003310;28;20395;-87
2021/04/19 10:19:52;;;;;;;23.23;6.28;;;19.70;99.90;;;;;;4987464;28;20042;-87
2021/04/19 10:22:18;;;;;;;14.35;5.53;;;19.80;99.90;;;;;;4988436;28;20034;-87
2021/04/19 10:24:57;;;;;;;12.35;5.68;;;19.80;99.90;;;;;;4986856;28;20297;-87
2021/04/19 10:27:30;;;;;;;16.88;5.88;;;19.90;99.90;;;;;;4988980;28;20022;-86
2021/04/19 10:30:14;;;;;;;11.75;5.55;;;20.20;99.90;;;;;;4987550;28;20491;-87
2021/04/19 10:32:42;;;;;;;20.17;6.20;;;20.20;99.90;;;;;;4988416;28;20088;-86
2021/04/19 10:35:32;;;;;;;13.15;5.65;;;20.20;99.90;;;;;;4987975;28;20053;-86
2021/04/19 10:37:59;;;;;;;21.27;5.35;;;20.00;99.90;;;;;;4977822;28;20630;-85
2021/04/19 10:40:25;;;;;;;14.07;6.05;;;20.00;99.90;;;;;;4989856;28;20038;-87
2021/04/19 10:42:50;;;;;;;14.10;5.60;;;20.20;99.90;;;;;;4989213;28;20068;-87
2021/04/19 10:45:17;;;;;;;15.02;6.78;;;20.30;99.90;;;;;;4992965;28;20054;-87
2021/04/19 10:47:43;;;;;;;14.55;6.30;;;20.30;99.90;;;;;;5005271;28;20026;-86
2021/04/19 10:50:09;;;;;;;16.25;5.68;;;20.10;99.90;;;;;;4993008;28;20023;-86
2021/04/19 10:52:36;;;;;;;13.38;5.90;;;20.00;99.90;;;;;;4991561;28;20165;-86
2021/04/19 10:55:09;;;;;;;12.27;5.78;;;20.20;99.90;;;;;;4993087;28;20086;-87
2021/04/19 10:57:35;;;;;;;15.80;5.82;;;20.40;99.90;;;;;;4988456;28;20088;-87
2021/04/19 11:00:04;;;;;;;27.08;6.45;;;20.20;99.90;;;;;;4992266;28;20034;-87
2021/04/19 11:02:31;;;;;;;13.02;6.03;;;20.10;99.90;;;;;;4992297;28;20125;-87
2021/04/19 11:04:58;;;;;;;10.10;5.28;;;20.10;99.90;;;;;;4991383;28;20495;-85
2021/04/19 11:07:32;;;;;;;10.43;5.13;;;20.30;99.90;;;;;;4991587;28;20023;-86
2021/04/19 11:10:16;;;;;;;15.88;6.35;;;20.60;99.90;;;;;;4992536;28;20027;-87
2021/04/19 11:12:57;;;;;;;10.85;5.95;;;20.80;99.90;;;;;;4985588;28;20031;-87
2021/04/19 11:15:46;;;;;;;11.68;5.28;;;21.00;99.90;;;;;;4989514;28;20034;-87
2021/04/19 11:18:19;;;;;;;13.45;6.00;;;21.20;99.90;;;;;;4992570;28;20036;-87
2021/04/19 11:20:45;;;;;;;14.75;4.97;;;21.10;99.90;;;;;;4991157;28;20136;-87
2021/04/19 11:23:21;;;;;;;13.55;5.25;;;21.20;99.90;;;;;;4992164;28;20050;-87
2021/04/19 11:25:48;;;;;;;14.40;6.82;;;21.20;99.90;;;;;;4991607;28;20635;-87
2021/04/19 11:28:33;;;;;;;20.88;5.40;;;21.30;99.90;;;;;;4991760;28;20033;-86
2021/04/19 11:31:13;;;;;;;17.75;5.20;;;21.10;99.90;;;;;;4983492;28;20548;-86
2021/04/19 11:33:38;;;;;;;10.75;5.97;;;20.90;99.90;;;;;;4985186;28;20042;-87
2021/04/19 11:36:06;;;;;;;10.48;4.65;;;21.00;99.90;;;;;;4990110;28;20081;-87
2021/04/19 11:38:35;;;;;;;12.10;5.07;;;20.80;99.90;;;;;;4991694;28;20076;-87
2021/04/19 11:41:04;;;;;;;16.48;4.95;;;21.00;99.90;;;;;;4990162;28;20042;-86
2021/04/19 11:43:32;;;;;;;11.60;5.43;;;21.40;99.90;;;;;;4990997;28;20114;-88
2021/04/19 11:46:02;;;;;;;9.43;5.03;;;21.10;99.90;;;;;;4989174;28;20042;-86
2021/04/19 11:48:29;;;;;;;12.07;5.00;;;20.80;99.90;;;;;;4988874;28;20039;-87
2021/04/19 11:50:56;;;;;;;10.50;5.05;;;20.80;99.90;;;;;;4990032;28;20077;-87
2021/04/19 11:53:26;;;;;;;16.75;4.45;;;21.10;99.90;;;;;;4991641;28;20093;-87
2021/04/19 11:55:53;;;;;;;21.17;4.78;;;21.50;99.90;;;;;;4989911;28;20034;-87
2021/04/19 11:58:19;;;;;;;12.45;4.85;;;21.90;95.50;;;;;;4986646;28;20038;-87
2021/04/19 12:00:47;;;;;;;12.38;4.57;;;22.10;91.90;;;;;;4990784;28;20391;-86
2021/04/19 12:03:13;;;;;;;17.48;4.80;;;21.90;91.30;;;;;;4989399;28;20101;-86
2021/04/19 12:05:38;;;;;;;15.02;4.45;;;22.30;89.80;;;;;;5005530;28;20019;-87
2021/04/19 12:08:04;;;;;;;15.55;5.15;;;22.50;82.60;;;;;;4989314;28;20022;-87
2021/04/19 12:10:30;;;;;;;7.88;4.15;;;22.50;87.00;;;;;;4990740;28;20030;-86
2021/04/19 12:12:56;;;;;;;15.43;4.93;;;22.60;82.60;;;;;;4990552;28;20026;-86
2021/04/19 12:15:21;;;;;;;9.85;4.50;;;22.30;75.20;;;;;;4990184;28;20041;-87
2021/04/19 12:17:47;;;;;;;8.90;4.43;;;22.70;87.60;;;;;;4991552;28;20034;-86
2021/04/19 12:20:12;;;;;;;11.02;3.95;;;23.40;82.50;;;;;;4990407;28;20030;-86
2021/04/19 12:22:39;;;;;;;14.35;3.92;;;23.90;75.80;;;;;;4989184;28;20053;-87
2021/04/19 12:25:05;;;;;;;8.60;4.60;;;24.30;66.20;;;;;;5005493;28;20022;-88
2021/04/19 12:27:30;;;;;;;15.68;4.13;;;24.40;65.10;;;;;;4989003;28;20112;-87
2021/04/19 12:29:56;;;;;;;13.25;4.57;;;24.30;61.20;;;;;;4993584;28;20069;-88
2021/04/19 12:32:21;;;;;;;9.10;4.15;;;24.10;63.40;;;;;;4991903;28;20037;-87
2021/04/19 12:34:47;;;;;;;12.50;4.78;;;24.50;61.50;;;;;;4991305;28;20034;-87
2021/04/19 12:37:12;;;;;;;9.35;3.53;;;24.50;59.30;;;;;;4991392;28;20041;-87
2021/04/19 12:39:38;;;;;;;12.32;4.10;;;24.80;59.30;;;;;;4992153;28;20126;-88
2021/04/19 12:42:04;;;;;;;12.30;4.20;;;25.10;57.40;;;;;;4991778;28;20037;-87
2021/04/19 12:44:30;;;;;;;10.30;4.07;;;25.30;51.60;;;;;;4991330;28;20026;-87
2021/04/19 12:46:55;;;;;;;15.38;4.40;;;25.40;54.40;;;;;;4992148;28;20085;-86
2021/04/19 12:49:21;;;;;;;12.23;4.20;;;25.50;53.50;;;;;;4993163;28;20031;-87